SYD weather

Sydney Kingsford Smith International Airport
Sydney, New South Wales, Australia

Public forecast

Using degrees Celsius for public forecast. Weather courtesy of forecast.io.

METAR (pilot weather report)

Retrieved 2017/09/20 22:30 UTC (20 minutes ago):

YSSY 202230Z 31008KT CAVOK 16/10 Q1017 NOSIG

TAF (pilot weather forecast)

Retrieved 2017/09/20 18:00 UTC (5 hours ago):

TAF YSSY 201716Z 2018/2124 29008KT CAVOK FM210200 04015KT CAVOK FM211000 33008KT CAVOK